createdAt,value
2017-02-17T00:00:52.601Z,0
2017-02-17T00:02:03.295Z,0
2017-02-17T00:03:13.996Z,0
2017-02-17T00:04:24.700Z,0
2017-02-17T00:05:35.403Z,0
2017-02-17T00:06:46.116Z,0
2017-02-17T00:07:56.817Z,0
2017-02-17T00:09:07.522Z,0
2017-02-17T00:10:17.818Z,0
2017-02-17T00:11:28.516Z,0
2017-02-17T00:12:39.211Z,0
2017-02-17T00:13:49.899Z,0
2017-02-17T00:15:00.618Z,0
2017-02-17T00:16:11.723Z,0
2017-02-17T00:17:22.420Z,0
2017-02-17T00:18:33.120Z,0
2017-02-17T00:19:43.822Z,0
2017-02-17T00:20:54.529Z,0
2017-02-17T00:22:04.821Z,0
2017-02-17T00:23:14.745Z,0
2017-02-17T00:24:25.445Z,0
2017-02-17T00:25:36.137Z,0
2017-02-17T00:26:46.853Z,0
2017-02-17T00:27:57.552Z,0
2017-02-17T00:29:08.276Z,0
2017-02-17T00:30:18.584Z,0
2017-02-17T00:31:29.292Z,0
2017-02-17T00:32:40.020Z,0
2017-02-17T00:33:50.718Z,0
2017-02-17T00:35:01.420Z,0
2017-02-17T00:36:11.719Z,0
2017-02-17T00:37:22.010Z,0
2017-02-17T00:38:32.699Z,0
2017-02-17T00:39:43.391Z,0
2017-02-17T00:40:54.094Z,0
2017-02-17T00:42:04.796Z,0
2017-02-17T00:43:15.516Z,0
2017-02-17T00:44:26.201Z,0
2017-02-17T00:45:36.902Z,0
2017-02-17T00:46:47.617Z,0
2017-02-17T00:47:58.342Z,0
2017-02-17T00:49:09.058Z,0
2017-02-17T00:50:19.365Z,0
2017-02-17T00:51:30.060Z,0
2017-02-17T00:52:40.752Z,0
2017-02-17T00:53:51.451Z,0
2017-02-17T00:55:02.148Z,0
2017-02-17T00:56:12.468Z,0
2017-02-17T00:57:23.169Z,0
2017-02-17T00:58:33.478Z,0
2017-02-17T00:59:44.186Z,0
2017-02-17T01:00:54.880Z,0
2017-02-17T01:02:05.596Z,0
2017-02-17T01:03:15.906Z,0
2017-02-17T01:04:26.627Z,0
2017-02-17T01:05:37.359Z,0
2017-02-17T01:06:48.072Z,0
2017-02-17T01:07:58.777Z,0
2017-02-17T01:09:09.476Z,0
2017-02-17T01:10:19.771Z,0
2017-02-17T01:11:30.513Z,0
2017-02-17T01:12:41.208Z,0
2017-02-17T01:13:51.911Z,0
2017-02-17T01:15:02.595Z,0
2017-02-17T01:16:12.912Z,0
2017-02-17T01:17:23.622Z,0
2017-02-17T01:18:34.308Z,0
2017-02-17T01:19:44.628Z,0
2017-02-17T01:20:55.333Z,0
2017-02-17T01:22:05.641Z,0
2017-02-17T01:23:15.944Z,0
2017-02-17T01:24:26.255Z,0
2017-02-17T01:25:36.977Z,0
2017-02-17T01:26:47.674Z,0
2017-02-17T01:27:58.373Z,0
2017-02-17T01:29:09.089Z,0
2017-02-17T01:30:19.408Z,0
2017-02-17T01:31:30.101Z,0
2017-02-17T01:32:40.789Z,0
2017-02-17T01:33:51.505Z,0
2017-02-17T01:35:02.214Z,0
2017-02-17T01:36:12.917Z,0
2017-02-17T01:37:23.238Z,0
2017-02-17T01:38:33.954Z,0
2017-02-17T01:39:44.655Z,0
2017-02-17T01:40:55.354Z,0
2017-02-17T01:42:05.676Z,0
2017-02-17T01:43:16.389Z,0
2017-02-17T01:44:27.087Z,0
2017-02-17T01:45:37.392Z,0
2017-02-17T01:46:48.089Z,0
2017-02-17T01:47:58.784Z,0
2017-02-17T01:49:09.484Z,0
2017-02-17T01:50:19.784Z,0
2017-02-17T01:51:30.490Z,0
2017-02-17T01:52:41.195Z,0
2017-02-17T01:53:51.886Z,0
2017-02-17T01:55:02.580Z,0
2017-02-17T01:56:12.904Z,0
2017-02-17T01:57:23.595Z,0
2017-02-17T01:58:33.913Z,0
2017-02-17T01:59:44.623Z,0
2017-02-17T02:00:55.327Z,0
2017-02-17T02:02:05.620Z,0
2017-02-17T02:03:15.904Z,0
2017-02-17T02:04:26.626Z,0
2017-02-17T02:05:37.330Z,0
2017-02-17T02:06:48.026Z,0
2017-02-17T02:07:58.735Z,0
2017-02-17T02:09:09.435Z,0
2017-02-17T02:10:19.736Z,0
2017-02-17T02:11:30.447Z,0
2017-02-17T02:12:41.139Z,0
2017-02-17T02:13:51.835Z,0
2017-02-17T02:15:02.528Z,0
2017-02-17T02:16:13.249Z,0
2017-02-17T02:17:23.573Z,0
2017-02-17T02:18:34.258Z,0
2017-02-17T02:19:44.575Z,0
2017-02-17T02:20:55.285Z,0
2017-02-17T02:22:05.982Z,0
2017-02-17T02:23:16.277Z,0
2017-02-17T02:24:26.991Z,0
2017-02-17T02:25:37.295Z,0
2017-02-17T02:26:48.004Z,0
2017-02-17T02:27:58.713Z,0
2017-02-17T02:29:09.418Z,0
2017-02-17T02:30:19.758Z,0
2017-02-17T02:31:30.475Z,0
2017-02-17T02:32:41.198Z,0
2017-02-17T02:33:51.902Z,0
2017-02-17T02:35:02.599Z,0
2017-02-17T02:36:13.293Z,0
2017-02-17T02:37:24.008Z,0
2017-02-17T02:38:34.725Z,0
2017-02-17T02:39:45.434Z,0
2017-02-17T02:40:56.133Z,0
2017-02-17T02:42:06.843Z,0
2017-02-17T02:43:17.138Z,0
2017-02-17T02:44:27.859Z,0
2017-02-17T02:45:38.552Z,0
2017-02-17T02:46:49.256Z,0
2017-02-17T02:47:59.954Z,0
2017-02-17T02:49:10.644Z,0
2017-02-17T02:50:21.356Z,0
2017-02-17T02:51:31.655Z,0
2017-02-17T02:52:42.358Z,0
2017-02-17T02:53:53.053Z,0
2017-02-17T02:55:03.379Z,0
2017-02-17T02:56:14.074Z,0
2017-02-17T02:57:24.778Z,0
2017-02-17T02:58:35.490Z,0
2017-02-17T02:59:46.186Z,0
2017-02-17T03:00:56.887Z,0
2017-02-17T03:02:07.590Z,0
2017-02-17T03:03:18.289Z,0
2017-02-17T03:04:28.183Z,0
2017-02-17T03:05:38.894Z,0
2017-02-17T03:06:49.582Z,0
2017-02-17T03:08:00.272Z,0
2017-02-17T03:09:10.970Z,0
2017-02-17T03:10:21.660Z,0
2017-02-17T03:11:32.347Z,0
2017-02-17T03:12:43.045Z,0
2017-02-17T03:13:53.767Z,0
2017-02-17T03:15:04.501Z,0
2017-02-17T03:16:14.424Z,0
2017-02-17T03:17:25.124Z,0
2017-02-17T03:18:35.446Z,0
2017-02-17T03:19:46.153Z,0
2017-02-17T03:20:56.866Z,0
2017-02-17T03:22:07.565Z,0
2017-02-17T03:23:17.067Z,0
2017-02-17T03:24:27.801Z,0
2017-02-17T03:25:38.490Z,0
2017-02-17T03:26:49.212Z,0
2017-02-17T03:27:59.906Z,0
2017-02-17T03:29:10.614Z,0
2017-02-17T03:30:21.303Z,0
2017-02-17T03:31:31.589Z,0
2017-02-17T03:32:42.272Z,0
2017-02-17T03:33:53.000Z,0
2017-02-17T03:35:03.698Z,0
2017-02-17T03:36:14.067Z,0
2017-02-17T03:37:24.784Z,0
2017-02-17T03:38:35.472Z,0
2017-02-17T03:39:46.178Z,0
2017-02-17T03:40:56.886Z,0
2017-02-17T03:42:07.203Z,0
2017-02-17T03:43:17.889Z,0
2017-02-17T03:44:28.187Z,0
2017-02-17T03:45:38.516Z,0
2017-02-17T03:46:48.820Z,0
2017-02-17T03:47:59.508Z,0
2017-02-17T03:49:09.817Z,0
2017-02-17T03:50:19.736Z,0
2017-02-17T03:51:30.435Z,0
2017-02-17T03:52:41.129Z,0
2017-02-17T03:53:51.833Z,0
2017-02-17T03:55:02.517Z,0
2017-02-17T03:56:13.220Z,0
2017-02-17T03:57:23.915Z,0
2017-02-17T03:58:34.237Z,0
2017-02-17T03:59:44.525Z,0
2017-02-17T04:00:54.817Z,0
2017-02-17T04:02:05.550Z,0
2017-02-17T04:03:15.866Z,0
2017-02-17T04:04:26.564Z,0
2017-02-17T04:05:37.287Z,0
2017-02-17T04:06:48.000Z,0
2017-02-17T04:07:58.689Z,0
2017-02-17T04:09:09.398Z,0
2017-02-17T04:10:20.099Z,0
2017-02-17T04:11:31.057Z,0
2017-02-17T04:12:41.781Z,0
2017-02-17T04:13:52.493Z,0
2017-02-17T04:15:03.191Z,0
2017-02-17T04:16:13.534Z,0
2017-02-17T04:17:23.842Z,0
2017-02-17T04:18:34.537Z,0
2017-02-17T04:19:45.233Z,0
2017-02-17T04:20:55.935Z,0
2017-02-17T04:22:06.238Z,0
2017-02-17T04:23:16.941Z,0
2017-02-17T04:24:27.661Z,0
2017-02-17T04:25:38.352Z,0
2017-02-17T04:26:49.067Z,0
2017-02-17T04:27:59.779Z,0
2017-02-17T04:29:10.084Z,0
2017-02-17T04:30:20.420Z,0
2017-02-17T04:31:31.110Z,0
2017-02-17T04:32:41.803Z,0
2017-02-17T04:33:52.523Z,0
2017-02-17T04:35:03.204Z,0
2017-02-17T04:36:13.912Z,0
2017-02-17T04:37:24.605Z,0
2017-02-17T04:38:35.323Z,0
2017-02-17T04:39:46.008Z,0
2017-02-17T04:40:56.695Z,0
2017-02-17T04:42:07.400Z,0
2017-02-17T04:43:17.712Z,0
2017-02-17T04:44:28.419Z,0
2017-02-17T04:45:38.724Z,0
2017-02-17T04:46:49.430Z,0
2017-02-17T04:48:00.150Z,0
2017-02-17T04:49:10.839Z,0
2017-02-17T04:50:21.149Z,0
2017-02-17T04:51:31.851Z,0
2017-02-17T04:52:42.536Z,0
2017-02-17T04:53:53.251Z,0
2017-02-17T04:55:03.952Z,0
2017-02-17T04:56:14.244Z,0
2017-02-17T04:57:24.526Z,0
2017-02-17T04:58:35.234Z,0
2017-02-17T04:59:45.935Z,0
2017-02-17T05:00:56.665Z,0
2017-02-17T05:02:06.961Z,0
2017-02-17T05:03:17.683Z,0
2017-02-17T05:04:28.385Z,0
2017-02-17T05:05:39.071Z,0
2017-02-17T05:06:49.769Z,0
2017-02-17T05:08:00.478Z,0
2017-02-17T05:09:11.186Z,0
2017-02-17T05:10:21.883Z,0
2017-02-17T05:11:32.571Z,0
2017-02-17T05:12:43.252Z,0
2017-02-17T05:13:53.969Z,0
2017-02-17T05:15:04.687Z,0
2017-02-17T05:16:15.385Z,0
2017-02-17T05:17:26.075Z,0
2017-02-17T05:18:36.792Z,0
2017-02-17T05:19:47.093Z,0
2017-02-17T05:20:57.767Z,0
2017-02-17T05:22:08.059Z,0
2017-02-17T05:23:18.345Z,0
2017-02-17T05:24:29.048Z,0
2017-02-17T05:25:39.751Z,0
2017-02-17T05:26:50.445Z,0
2017-02-17T05:28:01.149Z,0
2017-02-17T05:29:11.851Z,0
2017-02-17T05:30:22.543Z,0
2017-02-17T05:31:32.838Z,0
2017-02-17T05:32:43.549Z,0
2017-02-17T05:33:54.261Z,0
2017-02-17T05:35:04.953Z,0
2017-02-17T05:36:15.669Z,0
2017-02-17T05:37:26.363Z,0
2017-02-17T05:38:37.073Z,0
2017-02-17T05:39:47.798Z,0
2017-02-17T05:40:58.110Z,0
2017-02-17T05:42:08.416Z,0
2017-02-17T05:43:18.720Z,0
2017-02-17T05:44:29.020Z,0
2017-02-17T05:45:39.719Z,0
2017-02-17T05:46:50.431Z,0
2017-02-17T05:48:01.137Z,0
2017-02-17T05:49:11.843Z,0
2017-02-17T05:50:22.540Z,0
2017-02-17T05:51:33.256Z,0
2017-02-17T05:52:43.552Z,0
2017-02-17T05:53:54.269Z,0
2017-02-17T05:55:04.976Z,0
2017-02-17T05:56:14.883Z,0
2017-02-17T05:57:25.630Z,0
2017-02-17T05:58:35.934Z,0
2017-02-17T05:59:46.647Z,0
2017-02-17T06:00:57.356Z,0
2017-02-17T06:02:07.659Z,0
2017-02-17T06:03:18.343Z,0
2017-02-17T06:04:28.243Z,0
2017-02-17T06:05:38.943Z,0
2017-02-17T06:06:49.250Z,0
2017-02-17T06:07:59.967Z,0
2017-02-17T06:09:10.270Z,4
2017-02-17T06:10:20.977Z,4
2017-02-17T06:11:31.693Z,0
2017-02-17T06:12:42.391Z,0
2017-02-17T06:13:53.110Z,4
2017-02-17T06:15:03.419Z,4
2017-02-17T06:16:13.747Z,4
2017-02-17T06:17:24.446Z,4
2017-02-17T06:18:35.143Z,4
2017-02-17T06:19:45.862Z,8
2017-02-17T06:20:56.551Z,8
2017-02-17T06:22:06.850Z,12
2017-02-17T06:23:17.147Z,16
2017-02-17T06:24:27.856Z,16
2017-02-17T06:25:38.545Z,16
2017-02-17T06:26:49.267Z,20
2017-02-17T06:27:59.961Z,24
2017-02-17T06:29:10.664Z,28
2017-02-17T06:30:20.574Z,36
2017-02-17T06:31:30.900Z,40
2017-02-17T06:32:41.597Z,48
2017-02-17T06:33:52.299Z,52
2017-02-17T06:35:02.598Z,64
2017-02-17T06:36:12.888Z,68
2017-02-17T06:37:22.800Z,80
2017-02-17T06:38:33.126Z,88
2017-02-17T06:39:43.830Z,104
2017-02-17T06:40:54.539Z,120
2017-02-17T06:42:05.258Z,132
2017-02-17T06:43:15.954Z,148
2017-02-17T06:44:26.642Z,168
2017-02-17T06:45:37.348Z,188
2017-02-17T06:46:47.654Z,208
2017-02-17T06:47:58.372Z,232
2017-02-17T06:49:09.076Z,252
2017-02-17T06:50:19.375Z,272
2017-02-17T06:51:30.076Z,300
2017-02-17T06:52:40.776Z,324
2017-02-17T06:53:51.465Z,352
2017-02-17T06:55:02.159Z,380
2017-02-17T06:56:12.687Z,408
2017-02-17T06:57:23.399Z,432
2017-02-17T06:58:34.105Z,464
2017-02-17T06:59:44.816Z,496
2017-02-17T07:00:55.527Z,528
2017-02-17T07:02:06.229Z,560
2017-02-17T07:03:16.929Z,588
2017-02-17T07:04:27.631Z,624
2017-02-17T07:05:38.328Z,660
2017-02-17T07:06:49.021Z,696
2017-02-17T07:07:59.721Z,728
2017-02-17T07:09:10.019Z,764
2017-02-17T07:10:19.937Z,800
2017-02-17T07:11:30.632Z,840
2017-02-17T07:12:41.344Z,872
2017-02-17T07:13:52.038Z,908
2017-02-17T07:15:02.361Z,944
2017-02-17T07:16:12.669Z,976
2017-02-17T07:17:22.970Z,1008
2017-02-17T07:18:33.281Z,1044
2017-02-17T07:19:43.187Z,1080
2017-02-17T07:20:53.877Z,1120
2017-02-17T07:22:04.601Z,1156
2017-02-17T07:23:14.932Z,1200
2017-02-17T07:24:25.646Z,1244
2017-02-17T07:25:35.947Z,1308
2017-02-17T07:26:46.653Z,1404
2017-02-17T07:27:57.343Z,1496
2017-02-17T07:29:08.034Z,1528
2017-02-17T07:30:18.743Z,1528
2017-02-17T07:31:29.447Z,1476
2017-02-17T07:32:40.162Z,1476
2017-02-17T07:33:50.851Z,1520
2017-02-17T07:35:01.582Z,1696
2017-02-17T07:36:12.299Z,1816
2017-02-17T07:37:23.009Z,1780
2017-02-17T07:38:33.729Z,1708
2017-02-17T07:39:44.437Z,1716
2017-02-17T07:40:55.133Z,1896
2017-02-17T07:42:05.455Z,2128
2017-02-17T07:43:16.160Z,2180
2017-02-17T07:44:26.066Z,2236
2017-02-17T07:45:36.757Z,2288
2017-02-17T07:46:47.468Z,2340
2017-02-17T07:47:58.170Z,2380
2017-02-17T07:49:08.873Z,2412
2017-02-17T07:50:19.175Z,2440
2017-02-17T07:51:29.887Z,2528
2017-02-17T07:52:40.571Z,2604
2017-02-17T07:53:51.265Z,2640
2017-02-17T07:55:01.991Z,2684
2017-02-17T07:56:12.294Z,2728
2017-02-17T07:57:22.988Z,2764
2017-02-17T07:58:33.687Z,2804
2017-02-17T07:59:44.383Z,2812
2017-02-17T08:00:55.086Z,2820
2017-02-17T08:02:05.775Z,2856
2017-02-17T08:03:16.066Z,2900
2017-02-17T08:04:26.760Z,2928
2017-02-17T08:05:37.463Z,2976
2017-02-17T08:06:47.783Z,3004
2017-02-17T08:07:58.476Z,3036
2017-02-17T08:09:09.171Z,3084
2017-02-17T08:10:19.075Z,3124
2017-02-17T08:11:29.780Z,3160
2017-02-17T08:12:40.475Z,3196
2017-02-17T08:13:51.165Z,3228
2017-02-17T08:15:01.870Z,3284
2017-02-17T08:16:12.171Z,3372
2017-02-17T08:17:22.882Z,3380
2017-02-17T08:18:33.588Z,3460
2017-02-17T08:19:44.280Z,3428
2017-02-17T08:20:54.968Z,3404
2017-02-17T08:22:05.294Z,3524
2017-02-17T08:23:15.601Z,3584
2017-02-17T08:24:26.313Z,3684
2017-02-17T08:25:37.058Z,3220
2017-02-17T08:26:47.761Z,3368
2017-02-17T08:27:58.463Z,3256
2017-02-17T08:29:09.195Z,3648
2017-02-17T08:30:19.496Z,3812
2017-02-17T08:31:30.189Z,4012
2017-02-17T08:32:40.901Z,4020
2017-02-17T08:33:51.609Z,4748
2017-02-17T08:35:02.314Z,4144
2017-02-17T08:36:12.645Z,4052
2017-02-17T08:37:23.367Z,4080
2017-02-17T08:38:34.058Z,4164
2017-02-17T08:39:44.384Z,4216
2017-02-17T08:40:55.080Z,4376
2017-02-17T08:42:05.777Z,4296
2017-02-17T08:43:16.473Z,4416
2017-02-17T08:44:27.169Z,4544
2017-02-17T08:45:37.862Z,4680
2017-02-17T08:46:48.560Z,4836
2017-02-17T08:47:59.268Z,4844
2017-02-17T08:49:09.983Z,4900
2017-02-17T08:50:20.318Z,4960
2017-02-17T08:51:31.034Z,4968
2017-02-17T08:52:41.343Z,5024
2017-02-17T08:53:52.038Z,5128
2017-02-17T08:55:02.743Z,5208
2017-02-17T08:56:13.042Z,5344
2017-02-17T08:57:23.736Z,5500
2017-02-17T08:58:34.040Z,5532
2017-02-17T08:59:44.335Z,5384
2017-02-17T09:00:55.048Z,5260
2017-02-17T09:02:05.748Z,5240
2017-02-17T09:03:15.671Z,5920
2017-02-17T09:04:26.379Z,6204
2017-02-17T09:05:37.108Z,6352
2017-02-17T09:06:47.811Z,6272
2017-02-17T09:07:58.505Z,6292
2017-02-17T09:09:09.204Z,6364
2017-02-17T09:10:19.907Z,6444
2017-02-17T09:11:30.602Z,6320
2017-02-17T09:12:41.299Z,6268
2017-02-17T09:13:52.022Z,5936
2017-02-17T09:15:02.716Z,5776
2017-02-17T09:16:13.018Z,5620
2017-02-17T09:17:23.712Z,5056
2017-02-17T09:18:34.025Z,4920
2017-02-17T09:19:44.732Z,4796
2017-02-17T09:20:55.427Z,4860
2017-02-17T09:22:05.331Z,4616
2017-02-17T09:23:15.231Z,4464
2017-02-17T09:24:25.537Z,4128
2017-02-17T09:25:36.242Z,4212
2017-02-17T09:26:46.953Z,4696
2017-02-17T09:27:57.650Z,4508
2017-02-17T09:29:08.368Z,3952
2017-02-17T09:30:19.068Z,4660
2017-02-17T09:31:29.414Z,3932
2017-02-17T09:32:40.116Z,3632
2017-02-17T09:33:50.828Z,3612
2017-02-17T09:35:00.722Z,3460
2017-02-17T09:36:11.430Z,3408
2017-02-17T09:37:22.143Z,3524
2017-02-17T09:38:32.458Z,3812
2017-02-17T09:39:43.184Z,4148
2017-02-17T09:40:53.901Z,4204
2017-02-17T09:42:04.251Z,4696
2017-02-17T09:43:14.180Z,4136
2017-02-17T09:44:24.879Z,4128
2017-02-17T09:45:35.620Z,4884
2017-02-17T09:46:46.311Z,5032
2017-02-17T09:47:57.005Z,5488
2017-02-17T09:49:07.724Z,5476
2017-02-17T09:50:18.428Z,5784
2017-02-17T09:51:29.169Z,5628
2017-02-17T09:52:39.873Z,5744
2017-02-17T09:53:50.579Z,5648
2017-02-17T09:55:01.272Z,5512
2017-02-17T09:56:11.576Z,5384
2017-02-17T09:57:21.888Z,5480
2017-02-17T09:58:32.190Z,5680
2017-02-17T09:59:42.890Z,5900
2017-02-17T10:00:53.187Z,5912
2017-02-17T10:02:03.893Z,6056
2017-02-17T10:03:14.611Z,6060
2017-02-17T10:04:25.308Z,6072
2017-02-17T10:05:36.019Z,6124
2017-02-17T10:06:46.731Z,6228
2017-02-17T10:07:57.437Z,6216
2017-02-17T10:09:08.134Z,6200
2017-02-17T10:10:18.041Z,6232
2017-02-17T10:11:28.745Z,6192
2017-02-17T10:12:39.457Z,6132
2017-02-17T10:13:49.767Z,6220
2017-02-17T10:15:00.467Z,6316
2017-02-17T10:16:11.180Z,6344
2017-02-17T10:17:21.880Z,6388
2017-02-17T10:18:32.573Z,6512
2017-02-17T10:19:43.292Z,6532
2017-02-17T10:20:54.022Z,6616
2017-02-17T10:22:04.759Z,6612
2017-02-17T10:23:15.068Z,6644
2017-02-17T10:24:25.378Z,6700
2017-02-17T10:25:35.288Z,6704
2017-02-17T10:26:45.998Z,6712
2017-02-17T10:27:55.923Z,6740
2017-02-17T10:29:06.640Z,6780
2017-02-17T10:30:17.338Z,6720
2017-02-17T10:31:27.661Z,6788
2017-02-17T10:32:38.356Z,6844
2017-02-17T10:33:49.064Z,6896
2017-02-17T10:34:59.804Z,6892
2017-02-17T10:36:10.526Z,6972
2017-02-17T10:37:21.228Z,7028
2017-02-17T10:38:31.950Z,7056
2017-02-17T10:39:42.667Z,7064
2017-02-17T10:40:53.392Z,7096
2017-02-17T10:42:04.136Z,7060
2017-02-17T10:43:14.864Z,7064
2017-02-17T10:44:25.222Z,7156
2017-02-17T10:45:35.926Z,7128
2017-02-17T10:46:46.668Z,7220
2017-02-17T10:47:57.379Z,7256
2017-02-17T10:49:08.091Z,7228
2017-02-17T10:50:18.808Z,7332
2017-02-17T10:51:29.519Z,7256
2017-02-17T10:52:40.251Z,7184
2017-02-17T10:53:50.954Z,7248
2017-02-17T10:55:01.298Z,7204
2017-02-17T10:56:12.004Z,7340
2017-02-17T10:57:22.715Z,7440
2017-02-17T10:58:33.417Z,7492
2017-02-17T10:59:44.124Z,7512
2017-02-17T11:00:54.831Z,7508
2017-02-17T11:02:05.159Z,7568
2017-02-17T11:03:15.864Z,7672
2017-02-17T11:04:26.173Z,9248
2017-02-17T11:05:36.488Z,24928
2017-02-17T11:06:47.191Z,34624
2017-02-17T11:07:57.893Z,33952
2017-02-17T11:09:08.604Z,34624
2017-02-17T11:10:18.506Z,34784
2017-02-17T11:11:29.219Z,33760
2017-02-17T11:12:39.924Z,32960
2017-02-17T11:13:50.632Z,30400
2017-02-17T11:15:00.247Z,32512
2017-02-17T11:16:10.954Z,33792
2017-02-17T11:17:21.666Z,34336
2017-02-17T11:18:32.373Z,33376
2017-02-17T11:19:42.688Z,33760
2017-02-17T11:20:53.014Z,34144
2017-02-17T11:22:03.720Z,34560
2017-02-17T11:23:14.067Z,34816
2017-02-17T11:24:24.774Z,34208
2017-02-17T11:25:35.501Z,34272
2017-02-17T11:26:46.217Z,35040
2017-02-17T11:27:56.925Z,35072
2017-02-17T11:29:07.629Z,36864
2017-02-17T11:30:17.953Z,35904
2017-02-17T11:31:28.684Z,36768
2017-02-17T11:32:39.402Z,38368
2017-02-17T11:33:50.113Z,38112
2017-02-17T11:35:00.036Z,37152
2017-02-17T11:36:10.380Z,36896
2017-02-17T11:37:20.685Z,38720
2017-02-17T11:38:31.022Z,37952
2017-02-17T11:39:41.749Z,36064
2017-02-17T11:40:52.454Z,34720
2017-02-17T11:42:03.161Z,36576
2017-02-17T11:43:13.092Z,36480
2017-02-17T11:44:23.827Z,36768
2017-02-17T11:45:34.150Z,36832
2017-02-17T11:46:44.896Z,35616
2017-02-17T11:47:55.648Z,33792
2017-02-17T11:49:05.967Z,33056
2017-02-17T11:50:16.289Z,35424
2017-02-17T11:51:27.017Z,36608
2017-02-17T11:52:37.348Z,35552
2017-02-17T11:53:48.096Z,35968
2017-02-17T11:54:58.810Z,36736
2017-02-17T11:56:09.153Z,34272
2017-02-17T11:57:19.517Z,34688
2017-02-17T11:58:30.227Z,36544
2017-02-17T11:59:40.936Z,36576
2017-02-17T12:00:51.663Z,37632
2017-02-17T12:02:02.391Z,36992
2017-02-17T12:03:13.105Z,35424
2017-02-17T12:04:23.838Z,37952
2017-02-17T12:05:34.571Z,37088
2017-02-17T12:06:45.358Z,37184
2017-02-17T12:07:56.100Z,34720
2017-02-17T12:09:06.822Z,32064
2017-02-17T12:10:17.553Z,25504
2017-02-17T12:11:27.911Z,22752
2017-02-17T12:12:38.654Z,21632
2017-02-17T12:13:49.380Z,20032
2017-02-17T12:15:00.106Z,19040
2017-02-17T12:16:10.835Z,18464
2017-02-17T12:17:21.553Z,18048
2017-02-17T12:18:32.271Z,17952
2017-02-17T12:19:42.998Z,17824
2017-02-17T12:20:53.715Z,17824
2017-02-17T12:22:04.442Z,17792
2017-02-17T12:23:14.790Z,17792
2017-02-17T12:24:25.514Z,17824
2017-02-17T12:25:36.268Z,17792
2017-02-17T12:26:46.996Z,17536
2017-02-17T12:27:57.723Z,17856
2017-02-17T12:29:08.439Z,18016
2017-02-17T12:30:19.167Z,17920
2017-02-17T12:31:29.875Z,17920
2017-02-17T12:32:40.600Z,18112
2017-02-17T12:33:51.318Z,18112
2017-02-17T12:35:02.040Z,18016
2017-02-17T12:36:12.377Z,18048
2017-02-17T12:37:23.235Z,18080
2017-02-17T12:38:33.973Z,18080
2017-02-17T12:39:44.324Z,18144
2017-02-17T12:40:55.056Z,18208
2017-02-17T12:42:05.774Z,18368
2017-02-17T12:43:15.330Z,19168
2017-02-17T12:44:26.047Z,19936
2017-02-17T12:45:36.757Z,19552
2017-02-17T12:46:47.499Z,19072
2017-02-17T12:47:57.829Z,18688
2017-02-17T12:49:07.753Z,18944
2017-02-17T12:50:18.470Z,18848
2017-02-17T12:51:29.220Z,18400
2017-02-17T12:52:39.947Z,18592
2017-02-17T12:53:50.663Z,18976
2017-02-17T12:55:01.394Z,18112
2017-02-17T12:56:11.710Z,18144
2017-02-17T12:57:22.040Z,17920
2017-02-17T12:58:32.771Z,18304
2017-02-17T12:59:43.532Z,18688
2017-02-17T13:00:54.270Z,18688
2017-02-17T13:02:04.990Z,18464
2017-02-17T13:03:15.320Z,18720
2017-02-17T13:04:26.036Z,18528
2017-02-17T13:05:36.369Z,17792
2017-02-17T13:06:47.108Z,19136
2017-02-17T13:07:57.839Z,20192
2017-02-17T13:09:08.555Z,19808
2017-02-17T13:10:18.891Z,20576
2017-02-17T13:11:29.637Z,20672
2017-02-17T13:12:40.363Z,21024
2017-02-17T13:13:51.085Z,21792
2017-02-17T13:15:01.796Z,22848
2017-02-17T13:16:12.533Z,26240
2017-02-17T13:17:23.249Z,25184
2017-02-17T13:18:33.967Z,23104
2017-02-17T13:19:44.696Z,22176
2017-02-17T13:20:55.424Z,19264
2017-02-17T13:22:06.161Z,17824
2017-02-17T13:23:16.897Z,15968
2017-02-17T13:24:27.620Z,13844
2017-02-17T13:25:38.341Z,13184
2017-02-17T13:26:49.073Z,13584
2017-02-17T13:27:59.407Z,13900
2017-02-17T13:29:10.146Z,15108
2017-02-17T13:30:20.880Z,16640
2017-02-17T13:31:32.045Z,16960
2017-02-17T13:32:43.064Z,14704
2017-02-17T13:33:54.067Z,13624
2017-02-17T13:35:05.207Z,13608
2017-02-17T13:36:15.996Z,12492
2017-02-17T13:37:27.080Z,12044
2017-02-17T13:38:38.243Z,13428
2017-02-17T13:39:49.178Z,13268
2017-02-17T13:41:00.283Z,12372
2017-02-17T13:42:10.977Z,12712
2017-02-17T13:43:21.785Z,12964
2017-02-17T13:44:33.145Z,13660
2017-02-17T13:45:44.016Z,19904
2017-02-17T13:46:55.048Z,22144
2017-02-17T13:48:05.533Z,17600
2017-02-17T13:49:15.157Z,11608
2017-02-17T13:50:25.968Z,13924
2017-02-17T13:51:36.807Z,17344
2017-02-17T13:52:47.647Z,11144
2017-02-17T13:53:58.399Z,11308
2017-02-17T13:55:08.318Z,18464
2017-02-17T13:56:19.026Z,19456
2017-02-17T13:57:29.758Z,14560
2017-02-17T13:58:40.479Z,11764
2017-02-17T13:59:51.186Z,12284
2017-02-17T14:01:01.909Z,11588
2017-02-17T14:02:12.235Z,11684
2017-02-17T14:03:22.560Z,11304
2017-02-17T14:04:33.283Z,10092
2017-02-17T14:05:44.004Z,9280
2017-02-17T14:06:54.768Z,8748
2017-02-17T14:08:05.491Z,8512
2017-02-17T14:09:15.805Z,8480
2017-02-17T14:10:25.732Z,8448
2017-02-17T14:11:36.431Z,8860
2017-02-17T14:12:46.752Z,9696
2017-02-17T14:13:57.479Z,8624
2017-02-17T14:15:07.798Z,7692
2017-02-17T14:16:18.098Z,7200
2017-02-17T14:17:28.818Z,6868
2017-02-17T14:18:39.539Z,6620
2017-02-17T14:19:50.277Z,6460
2017-02-17T14:21:00.582Z,6340
2017-02-17T14:22:10.886Z,6260
2017-02-17T14:23:21.615Z,6212
2017-02-17T14:24:32.338Z,6236
2017-02-17T14:25:43.046Z,6256
2017-02-17T14:26:53.366Z,6220
2017-02-17T14:28:04.065Z,6136
2017-02-17T14:29:14.383Z,6120
2017-02-17T14:30:25.112Z,6120
2017-02-17T14:31:35.820Z,6088
2017-02-17T14:32:46.118Z,6212
2017-02-17T14:33:56.818Z,6220
2017-02-17T14:35:07.534Z,6084
2017-02-17T14:36:17.872Z,6116
2017-02-17T14:37:28.202Z,6020
2017-02-17T14:38:38.900Z,5944
2017-02-17T14:39:49.217Z,5908
2017-02-17T14:40:59.924Z,5876
2017-02-17T14:42:10.252Z,5848
2017-02-17T14:43:20.977Z,5832
2017-02-17T14:44:31.685Z,5828
2017-02-17T14:45:42.404Z,5788
2017-02-17T14:46:52.725Z,5768
2017-02-17T14:48:03.437Z,5716
2017-02-17T14:49:13.763Z,5648
2017-02-17T14:50:24.505Z,5548
2017-02-17T14:51:35.215Z,5448
2017-02-17T14:52:45.931Z,5356
2017-02-17T14:53:56.240Z,5296
2017-02-17T14:55:06.554Z,5232
2017-02-17T14:56:17.275Z,5156
2017-02-17T14:57:28.020Z,5008
2017-02-17T14:58:38.733Z,4836
2017-02-17T14:59:49.451Z,4720
2017-02-17T15:00:59.766Z,4596
2017-02-17T15:02:10.465Z,4460
2017-02-17T15:03:21.174Z,4296
2017-02-17T15:04:31.487Z,4080
2017-02-17T15:05:41.805Z,3928
2017-02-17T15:06:52.535Z,3784
2017-02-17T15:08:02.840Z,3652
2017-02-17T15:09:13.556Z,3528
2017-02-17T15:10:23.869Z,3408
2017-02-17T15:11:34.597Z,3272
2017-02-17T15:12:45.325Z,3148
2017-02-17T15:13:56.033Z,3024
2017-02-17T15:15:06.731Z,2892
2017-02-17T15:16:17.069Z,2756
2017-02-17T15:17:27.783Z,2632
2017-02-17T15:18:38.489Z,2512
2017-02-17T15:19:48.807Z,2408
2017-02-17T15:20:59.502Z,2308
2017-02-17T15:22:09.433Z,2224
2017-02-17T15:23:19.746Z,2156
2017-02-17T15:24:29.666Z,2096
2017-02-17T15:25:40.014Z,2036
2017-02-17T15:26:49.949Z,1976
2017-02-17T15:27:59.855Z,1904
2017-02-17T15:29:10.590Z,1832
2017-02-17T15:30:20.512Z,1760
2017-02-17T15:31:30.804Z,1680
2017-02-17T15:32:41.139Z,1604
2017-02-17T15:33:51.834Z,1528
2017-02-17T15:35:02.533Z,1448
2017-02-17T15:36:13.270Z,1376
2017-02-17T15:37:23.983Z,1308
2017-02-17T15:38:34.689Z,1236
2017-02-17T15:39:45.007Z,1168
2017-02-17T15:40:55.312Z,1104
2017-02-17T15:42:06.034Z,1040
2017-02-17T15:43:16.339Z,976
2017-02-17T15:44:27.050Z,912
2017-02-17T15:45:37.761Z,852
2017-02-17T15:46:48.458Z,792
2017-02-17T15:47:59.174Z,740
2017-02-17T15:49:09.870Z,688
2017-02-17T15:50:20.235Z,644
2017-02-17T15:51:30.554Z,600
2017-02-17T15:52:41.271Z,560
2017-02-17T15:53:52.022Z,520
2017-02-17T15:55:02.740Z,484
2017-02-17T15:56:13.040Z,452
2017-02-17T15:57:23.371Z,428
2017-02-17T15:58:33.679Z,396
2017-02-17T15:59:44.403Z,372
2017-02-17T16:00:54.750Z,352
2017-02-17T16:02:05.460Z,332
2017-02-17T16:03:15.768Z,320
2017-02-17T16:04:26.474Z,308
2017-02-17T16:05:37.183Z,296
2017-02-17T16:06:47.939Z,284
2017-02-17T16:07:58.248Z,272
2017-02-17T16:09:08.554Z,264
2017-02-17T16:10:18.849Z,244
2017-02-17T16:11:29.562Z,232
2017-02-17T16:12:40.268Z,212
2017-02-17T16:13:51.043Z,196
2017-02-17T16:15:01.361Z,180